createdAt,value
2017-12-30T00:01:36.013Z,99958.77
2017-12-30T00:04:01.881Z,99962.66
2017-12-30T00:06:27.683Z,99959.21
2017-12-30T00:08:53.517Z,99960.88
2017-12-30T00:11:19.314Z,99959.55
2017-12-30T00:13:45.117Z,99971.33
2017-12-30T00:16:10.917Z,99968.77
2017-12-30T00:18:37.594Z,99972.16
2017-12-30T00:21:03.433Z,99965.63
2017-12-30T00:23:29.277Z,99971.15
2017-12-30T00:25:55.083Z,99973.40
2017-12-30T00:28:20.886Z,99975.23
2017-12-30T00:30:46.685Z,99976.31
2017-12-30T00:33:12.489Z,99974.45
2017-12-30T00:35:38.289Z,99982.05
2017-12-30T00:38:04.137Z,99982.84
2017-12-30T00:40:29.985Z,99983.16
2017-12-30T00:42:55.793Z,99995.86
2017-12-30T00:45:21.601Z,99985.31
2017-12-30T00:47:47.397Z,99983.83
2017-12-30T00:50:13.246Z,99983.38
2017-12-30T00:52:39.086Z,99980.38
2017-12-30T00:55:04.885Z,99982.55
2017-12-30T00:57:30.681Z,99981.09
2017-12-30T00:59:56.481Z,99982.56
2017-12-30T01:02:22.278Z,99981.68
2017-12-30T01:04:48.085Z,99986.73
2017-12-30T01:07:13.890Z,99983.08
2017-12-30T01:09:39.716Z,99981.63
2017-12-30T01:12:06.581Z,99981.58
2017-12-30T01:14:32.384Z,99981.23
2017-12-30T01:16:58.188Z,99977.48
2017-12-30T01:19:23.985Z,99989.26
2017-12-30T01:21:49.786Z,99990.34
2017-12-30T01:24:15.690Z,99976.61
2017-12-30T01:26:42.500Z,99966.95
2017-12-30T01:29:08.429Z,99978.25
2017-12-30T01:31:35.096Z,99973.20
2017-12-30T01:34:00.905Z,99978.02
2017-12-30T01:36:26.766Z,99967.45
2017-12-30T01:38:53.438Z,99976.08
2017-12-30T01:41:20.079Z,99976.97
2017-12-30T01:43:45.885Z,99972.88
2017-12-30T01:46:11.734Z,99963.45
2017-12-30T01:48:43.697Z,99967.83
2017-12-30T01:51:09.501Z,99965.40
2017-12-30T01:53:35.299Z,99966.55
2017-12-30T01:56:01.101Z,99966.89
2017-12-30T01:58:26.936Z,99964.11
2017-12-30T02:00:52.775Z,99969.55
2017-12-30T02:03:18.625Z,99966.39
2017-12-30T02:05:44.423Z,99964.07
2017-12-30T02:08:10.220Z,99963.11
2017-12-30T02:10:36.022Z,99969.14
2017-12-30T02:13:02.809Z,99975.89
2017-12-30T02:15:29.614Z,99973.90
2017-12-30T02:17:55.409Z,99962.66
2017-12-30T02:20:21.229Z,99961.49
2017-12-30T02:22:47.029Z,99975.04
2017-12-30T02:25:13.776Z,99969.87
2017-12-30T02:27:39.568Z,99971.88
2017-12-30T02:30:05.369Z,99969.56
2017-12-30T02:32:32.181Z,99966.78
2017-12-30T02:34:58.918Z,99970.66
2017-12-30T02:37:24.868Z,99975.83
2017-12-30T02:39:50.670Z,99976.30
2017-12-30T02:42:16.478Z,99973.84
2017-12-30T02:44:42.287Z,99986.21
2017-12-30T02:47:08.093Z,99975.50
2017-12-30T02:49:33.894Z,99990.81
2017-12-30T02:52:00.120Z,99995.61
2017-12-30T02:54:25.922Z,99990.32
2017-12-30T02:56:51.721Z,99986.86
2017-12-30T02:59:17.521Z,99980.63
2017-12-30T03:01:43.330Z,99976.81
2017-12-30T03:04:09.137Z,99973.84
2017-12-30T03:06:34.937Z,99971.94
2017-12-30T03:09:00.824Z,99967.28
2017-12-30T03:11:26.921Z,99972.00
2017-12-30T03:13:52.756Z,99968.27
2017-12-30T03:16:19.498Z,99964.48
2017-12-30T03:18:45.353Z,99973.00
2017-12-30T03:21:11.152Z,99967.47
2017-12-30T03:23:37.157Z,99964.23
2017-12-30T03:26:02.967Z,99961.44
2017-12-30T03:28:28.768Z,99958.28
2017-12-30T03:30:54.574Z,99956.72
2017-12-30T03:33:20.382Z,99956.88
2017-12-30T03:35:46.314Z,99956.44
2017-12-30T03:38:12.157Z,99957.37
2017-12-30T03:40:37.957Z,99953.31
2017-12-30T03:43:03.757Z,99963.33
2017-12-30T03:45:29.700Z,99959.94
2017-12-30T03:47:55.541Z,99958.03
2017-12-30T03:50:21.342Z,99947.50
2017-12-30T03:52:47.145Z,99956.70
2017-12-30T03:55:12.946Z,99958.45
2017-12-30T03:57:38.901Z,99957.70
2017-12-30T04:00:04.708Z,99951.09
2017-12-30T04:02:30.512Z,99947.31
2017-12-30T04:04:56.358Z,99943.26
2017-12-30T04:07:22.157Z,99938.50
2017-12-30T04:09:47.998Z,99935.15
2017-12-30T04:12:13.807Z,99937.03
2017-12-30T04:14:39.606Z,99945.02
2017-12-30T04:17:05.409Z,99941.06
2017-12-30T04:19:31.208Z,99946.66
2017-12-30T04:21:57.008Z,99955.55
2017-12-30T04:24:22.808Z,99957.88
2017-12-30T04:26:48.692Z,99958.48
2017-12-30T04:29:14.742Z,99962.51
2017-12-30T04:31:40.549Z,99959.12
2017-12-30T04:34:07.331Z,99954.41
2017-12-30T04:36:33.997Z,99955.82
2017-12-30T04:38:59.796Z,99946.61
2017-12-30T04:41:25.597Z,99937.45
2017-12-30T04:43:51.397Z,99939.13
2017-12-30T04:46:17.234Z,99935.98
2017-12-30T04:48:43.074Z,99932.83
2017-12-30T04:51:09.002Z,99933.09
2017-12-30T04:53:35.085Z,99930.39
2017-12-30T04:56:00.977Z,99932.55
2017-12-30T04:58:26.776Z,99931.93
2017-12-30T05:00:52.578Z,99931.30
2017-12-30T05:03:18.405Z,99929.05
2017-12-30T05:05:51.993Z,99935.80
2017-12-30T05:08:17.930Z,99936.78
2017-12-30T05:10:43.768Z,99930.92
2017-12-30T05:13:09.648Z,99932.33
2017-12-30T05:15:35.449Z,99926.84
2017-12-30T05:18:01.249Z,99933.25
2017-12-30T05:20:27.057Z,99924.34
2017-12-30T05:22:52.861Z,99925.13
2017-12-30T05:25:18.706Z,99934.91
2017-12-30T05:27:44.509Z,99931.78
2017-12-30T05:30:11.334Z,99927.39
2017-12-30T05:32:37.241Z,99937.61
2017-12-30T05:35:04.189Z,99932.74
2017-12-30T05:37:29.992Z,99945.19
2017-12-30T05:39:55.799Z,99948.84
2017-12-30T05:42:21.601Z,99958.08
2017-12-30T05:44:47.406Z,99962.25
2017-12-30T05:47:13.206Z,99959.45
2017-12-30T05:49:39.013Z,99961.12
2017-12-30T05:52:04.817Z,99964.59
2017-12-30T05:54:30.612Z,99955.83
2017-12-30T05:56:56.448Z,99941.76
2017-12-30T05:59:22.385Z,99961.34
2017-12-30T06:01:48.201Z,99961.84
2017-12-30T06:04:14.001Z,99964.23
2017-12-30T06:06:39.800Z,99949.24
2017-12-30T06:09:05.614Z,99946.77
2017-12-30T06:11:32.561Z,99948.78
2017-12-30T06:13:58.370Z,99951.20
2017-12-30T06:16:24.209Z,99950.03
2017-12-30T06:18:50.041Z,99952.81
2017-12-30T06:21:15.878Z,99949.16
2017-12-30T06:23:41.682Z,99947.21
2017-12-30T06:26:07.489Z,99946.03
2017-12-30T06:28:33.289Z,99939.35
2017-12-30T06:30:59.121Z,99933.02
2017-12-30T06:33:25.909Z,99942.66
2017-12-30T06:35:52.689Z,99948.53
2017-12-30T06:38:18.488Z,99949.64
2017-12-30T06:40:44.324Z,99943.95
2017-12-30T06:43:10.126Z,99949.44
2017-12-30T06:45:37.697Z,99948.37
2017-12-30T06:50:36.055Z,99961.15
2017-12-30T06:53:01.845Z,99965.59
2017-12-30T06:55:27.653Z,99972.34
2017-12-30T06:57:53.457Z,99972.08
2017-12-30T07:00:20.373Z,99966.32
2017-12-30T07:02:46.173Z,99964.83
2017-12-30T07:05:12.003Z,99959.72
2017-12-30T07:07:37.856Z,99967.00
2017-12-30T07:10:03.814Z,99958.33
2017-12-30T07:12:30.628Z,99959.66
2017-12-30T07:14:57.441Z,99956.58
2017-12-30T07:17:23.241Z,99961.84
2017-12-30T07:19:49.074Z,99952.70
2017-12-30T07:22:14.883Z,99949.73
2017-12-30T07:24:40.697Z,99941.52
2017-12-30T07:27:06.550Z,99938.38
2017-12-30T07:29:32.353Z,99936.05
2017-12-30T07:31:58.153Z,99935.67
2017-12-30T07:34:23.959Z,99937.47
2017-12-30T07:36:49.769Z,99937.30
2017-12-30T07:39:15.573Z,99936.50
2017-12-30T07:41:41.569Z,99934.50
2017-12-30T07:44:08.709Z,99940.75
2017-12-30T07:46:34.763Z,99940.87
2017-12-30T07:49:00.877Z,99941.94
2017-12-30T07:51:28.721Z,99940.20
2017-12-30T07:53:55.594Z,99941.36
2017-12-30T07:56:21.727Z,99941.58
2017-12-30T07:58:47.733Z,99931.59
2017-12-30T08:01:13.741Z,99930.61
2017-12-30T08:03:39.786Z,99923.72
2017-12-30T08:06:07.110Z,99927.00
2017-12-30T08:08:33.094Z,99929.06
2017-12-30T08:10:59.149Z,99922.28
2017-12-30T08:13:25.125Z,99916.72
2017-12-30T08:15:51.111Z,99917.36
2017-12-30T08:18:17.001Z,99916.10
2017-12-30T08:20:42.925Z,99921.66
2017-12-30T08:23:08.870Z,99916.39
2017-12-30T08:25:34.762Z,99914.97
2017-12-30T08:28:00.829Z,99919.75
2017-12-30T08:30:26.765Z,99916.55
2017-12-30T08:32:52.853Z,99914.05
2017-12-30T08:35:18.703Z,99920.31
2017-12-30T08:37:44.542Z,99917.03
2017-12-30T08:40:11.226Z,99923.89
2017-12-30T08:42:37.037Z,99926.05
2017-12-30T08:45:02.877Z,99925.21
2017-12-30T08:47:28.781Z,99910.09
2017-12-30T08:49:54.586Z,99913.08
2017-12-30T08:52:20.478Z,99911.05
2017-12-30T08:54:46.373Z,99904.48
2017-12-30T08:57:13.108Z,99904.33
2017-12-30T08:59:38.955Z,99908.03
2017-12-30T09:02:04.765Z,99901.56
2017-12-30T09:04:30.616Z,99905.51
2017-12-30T09:06:56.433Z,99903.78
2017-12-30T09:09:22.717Z,99899.97
2017-12-30T09:11:49.440Z,99902.46
2017-12-30T09:14:16.201Z,99899.75
2017-12-30T09:16:42.010Z,99907.31
2017-12-30T09:19:07.852Z,99901.38
2017-12-30T09:21:33.737Z,99898.55
2017-12-30T09:23:59.537Z,99907.86
2017-12-30T09:26:25.347Z,99912.23
2017-12-30T09:28:51.156Z,99905.42
2017-12-30T09:31:17.209Z,99906.54
2017-12-30T09:33:43.290Z,99898.34
2017-12-30T09:36:09.172Z,99892.25
2017-12-30T09:38:34.987Z,99891.71
2017-12-30T09:41:00.794Z,99878.45
2017-12-30T09:43:26.645Z,99877.21
2017-12-30T09:45:52.457Z,99873.03
2017-12-30T09:48:18.382Z,99867.27
2017-12-30T09:50:44.185Z,99865.76
2017-12-30T09:53:10.023Z,99864.06
2017-12-30T09:55:35.832Z,99863.05
2017-12-30T09:58:01.653Z,99868.32
2017-12-30T10:00:27.459Z,99859.99
2017-12-30T10:02:53.405Z,99863.53
2017-12-30T10:05:19.209Z,99856.11
2017-12-30T10:07:45.002Z,99855.55
2017-12-30T10:10:11.402Z,99847.38
2017-12-30T10:12:37.222Z,99850.61
2017-12-30T10:15:03.059Z,99850.54
2017-12-30T10:17:28.878Z,99842.14
2017-12-30T10:19:54.677Z,99835.50
2017-12-30T10:22:20.553Z,99832.98
2017-12-30T10:24:46.365Z,99825.66
2017-12-30T10:27:13.213Z,99815.34
2017-12-30T10:29:39.013Z,99812.30
2017-12-30T10:32:05.009Z,99804.27
2017-12-30T10:34:30.980Z,99798.02
2017-12-30T10:36:56.882Z,99795.14
2017-12-30T10:39:22.734Z,99797.37
2017-12-30T10:41:48.534Z,99795.66
2017-12-30T10:44:15.322Z,99786.64
2017-12-30T10:46:41.129Z,99781.55
2017-12-30T10:49:06.932Z,99776.36
2017-12-30T10:51:32.733Z,99769.84
2017-12-30T10:53:58.534Z,99771.64
2017-12-30T10:56:24.362Z,99765.06
2017-12-30T10:58:50.283Z,99755.61
2017-12-30T11:01:16.087Z,99754.58
2017-12-30T11:03:41.887Z,99754.77
2017-12-30T11:06:07.690Z,99749.78
2017-12-30T11:08:33.531Z,99737.15
2017-12-30T11:10:59.541Z,99733.60
2017-12-30T11:13:25.357Z,99734.58
2017-12-30T11:15:51.174Z,99723.20
2017-12-30T11:18:16.979Z,99714.95
2017-12-30T11:20:42.865Z,99706.80
2017-12-30T11:23:08.676Z,99697.73
2017-12-30T11:25:34.481Z,99691.82
2017-12-30T11:28:00.282Z,99688.88
2017-12-30T11:30:26.089Z,99690.10
2017-12-30T11:32:51.894Z,99682.59
2017-12-30T11:35:17.694Z,99680.80
2017-12-30T11:37:43.497Z,99682.54
2017-12-30T11:40:09.298Z,99666.61
2017-12-30T11:42:35.094Z,99663.13
2017-12-30T11:45:01.873Z,99657.72
2017-12-30T11:47:27.721Z,99657.95
2017-12-30T11:49:53.521Z,99648.94
2017-12-30T11:52:19.336Z,99650.97
2017-12-30T11:54:45.137Z,99637.73
2017-12-30T11:57:10.947Z,99628.75
2017-12-30T11:59:36.749Z,99631.94
2017-12-30T12:02:02.550Z,99631.54
2017-12-30T12:04:29.176Z,99620.09
2017-12-30T12:06:55.085Z,99616.60
2017-12-30T12:09:20.920Z,99605.97
2017-12-30T12:11:46.717Z,99600.34
2017-12-30T12:14:12.724Z,99596.80
2017-12-30T12:16:38.556Z,99603.83
2017-12-30T12:19:04.402Z,99596.59
2017-12-30T12:21:30.302Z,99581.02
2017-12-30T12:23:56.153Z,99579.16
2017-12-30T12:26:21.960Z,99574.70
2017-12-30T12:28:47.770Z,99568.02
2017-12-30T12:31:13.570Z,99569.56
2017-12-30T12:33:39.374Z,99555.00
2017-12-30T12:36:05.461Z,99553.61
2017-12-30T12:38:31.257Z,99549.77
2017-12-30T12:40:57.097Z,99541.82
2017-12-30T12:43:22.914Z,99542.54
2017-12-30T12:45:48.757Z,99541.44
2017-12-30T12:48:14.590Z,99538.27
2017-12-30T12:50:40.433Z,99527.48
2017-12-30T12:53:06.233Z,99525.95
2017-12-30T12:55:32.098Z,99520.34
2017-12-30T12:57:57.897Z,99523.69
2017-12-30T13:00:23.735Z,99517.05
2017-12-30T13:02:49.545Z,99520.74
2017-12-30T13:05:15.485Z,99505.77
2017-12-30T13:07:41.283Z,99494.88
2017-12-30T13:10:07.086Z,99498.95
2017-12-30T13:12:32.890Z,99502.02
2017-12-30T13:14:58.876Z,99494.23
2017-12-30T13:17:24.702Z,99484.81
2017-12-30T13:19:50.538Z,99482.80
2017-12-30T13:22:16.409Z,99481.84
2017-12-30T13:24:42.246Z,99477.73
2017-12-30T13:27:08.049Z,99471.45
2017-12-30T13:29:33.897Z,99480.89
2017-12-30T13:31:59.697Z,99476.31
2017-12-30T13:34:25.625Z,99476.31
2017-12-30T13:36:51.469Z,99476.46
2017-12-30T13:39:18.148Z,99484.36
2017-12-30T13:41:44.974Z,99485.22
2017-12-30T13:44:10.806Z,99488.84
2017-12-30T13:46:36.606Z,99481.16
2017-12-30T13:49:02.410Z,99473.22
2017-12-30T13:51:28.216Z,99462.83
2017-12-30T13:53:54.070Z,99464.38
2017-12-30T13:56:19.915Z,99448.45
2017-12-30T13:58:45.717Z,99443.83
2017-12-30T14:01:11.625Z,99444.42
2017-12-30T14:03:37.425Z,99435.08
2017-12-30T14:06:04.040Z,99439.41
2017-12-30T14:08:29.842Z,99429.89
2017-12-30T14:10:55.638Z,99430.67
2017-12-30T14:13:21.441Z,99433.44
2017-12-30T14:15:47.273Z,99435.97
2017-12-30T14:18:13.150Z,99457.73
2017-12-30T14:20:38.946Z,99457.31
2017-12-30T14:23:04.793Z,99461.11
2017-12-30T14:25:30.597Z,99444.60
2017-12-30T14:27:57.357Z,99443.75
2017-12-30T14:30:24.193Z,99437.95
2017-12-30T14:32:49.989Z,99421.91
2017-12-30T14:35:15.796Z,99403.69
2017-12-30T14:37:41.594Z,99394.21
2017-12-30T14:40:07.398Z,99387.97
2017-12-30T14:42:33.201Z,99393.45
2017-12-30T14:44:59.005Z,99375.55
2017-12-30T14:47:24.806Z,99365.31
2017-12-30T14:49:50.655Z,99355.38
2017-12-30T14:52:17.317Z,99359.06
2017-12-30T14:54:43.278Z,99358.50
2017-12-30T14:57:09.077Z,99354.78
2017-12-30T14:59:34.886Z,99352.51
2017-12-30T15:02:00.774Z,99344.91
2017-12-30T15:04:26.576Z,99346.58
2017-12-30T15:06:52.384Z,99345.73
2017-12-30T15:09:18.224Z,99340.55
2017-12-30T15:11:44.066Z,99341.50
2017-12-30T15:14:09.869Z,99337.64
2017-12-30T15:16:35.717Z,99326.66
2017-12-30T15:19:02.554Z,99333.86
2017-12-30T15:21:29.352Z,99319.70
2017-12-30T15:23:55.149Z,99322.13
2017-12-30T15:26:20.946Z,99328.84
2017-12-30T15:28:46.746Z,99334.67
2017-12-30T15:31:12.582Z,99329.21
2017-12-30T15:33:38.389Z,99310.03
2017-12-30T15:36:05.050Z,99311.42
2017-12-30T15:38:31.688Z,99293.89
2017-12-30T15:40:57.489Z,99300.34
2017-12-30T15:43:23.346Z,99286.27
2017-12-30T15:45:49.159Z,99292.61
2017-12-30T15:48:14.957Z,99290.88
2017-12-30T15:50:40.855Z,99284.78
2017-12-30T15:53:06.665Z,99288.12
2017-12-30T15:55:32.646Z,99289.48
2017-12-30T15:57:58.453Z,99272.34
2017-12-30T16:00:24.248Z,99268.64
2017-12-30T16:02:51.001Z,99270.08
2017-12-30T16:05:16.814Z,99271.73
2017-12-30T16:07:42.645Z,99253.19
2017-12-30T16:10:08.525Z,99251.09
2017-12-30T16:12:34.326Z,99247.64
2017-12-30T16:15:00.166Z,99244.09
2017-12-30T16:17:26.195Z,99258.91
2017-12-30T16:19:52.982Z,99252.38
2017-12-30T16:22:18.781Z,99250.31
2017-12-30T16:24:45.537Z,99242.11
2017-12-30T16:27:11.374Z,99238.53
2017-12-30T16:29:38.129Z,99236.02
2017-12-30T16:32:03.933Z,99228.11
2017-12-30T16:34:29.773Z,99225.48
2017-12-30T16:36:56.752Z,99224.98
2017-12-30T16:39:22.770Z,99225.92
2017-12-30T16:41:48.581Z,99216.95
2017-12-30T16:44:14.396Z,99214.11
2017-12-30T16:46:40.206Z,99212.55
2017-12-30T16:49:06.174Z,99213.25
2017-12-30T16:51:32.028Z,99217.94
2017-12-30T16:53:58.727Z,99226.25
2017-12-30T16:56:24.700Z,99218.22
2017-12-30T16:58:51.570Z,99218.23
2017-12-30T17:01:18.261Z,99217.69
2017-12-30T17:03:44.069Z,99213.20
2017-12-30T17:06:09.878Z,99210.02
2017-12-30T17:08:35.686Z,99221.18
2017-12-30T17:11:01.506Z,99194.25
2017-12-30T17:13:27.306Z,99190.59
2017-12-30T17:15:53.165Z,99198.53
2017-12-30T17:18:18.969Z,99193.97
2017-12-30T17:20:44.776Z,99207.09
2017-12-30T17:23:10.628Z,99212.39
2017-12-30T17:25:36.442Z,99206.33
2017-12-30T17:28:02.296Z,99201.96
2017-12-30T17:30:28.106Z,99196.64
2017-12-30T17:33:00.949Z,99195.03
2017-12-30T17:35:26.781Z,99189.14
2017-12-30T17:37:52.591Z,99183.23
2017-12-30T17:40:18.554Z,99179.50
2017-12-30T17:42:44.373Z,99175.10
2017-12-30T17:45:11.109Z,99181.45
2017-12-30T17:47:36.919Z,99172.63
2017-12-30T17:50:02.757Z,99183.34
2017-12-30T17:52:28.565Z,99182.19
2017-12-30T17:54:54.368Z,99185.79
2017-12-30T17:57:20.369Z,99176.70
2017-12-30T17:59:46.418Z,99175.90
2017-12-30T18:02:12.342Z,99184.25
2017-12-30T18:04:38.149Z,99182.11
2017-12-30T18:07:03.954Z,99180.45
2017-12-30T18:09:29.797Z,99181.17
2017-12-30T18:11:56.600Z,99178.62
2017-12-30T18:14:22.985Z,99169.00
2017-12-30T18:16:48.798Z,99174.93
2017-12-30T18:19:14.726Z,99171.65
2017-12-30T18:21:40.529Z,99175.52
2017-12-30T18:24:06.329Z,99146.25
2017-12-30T18:26:32.133Z,99208.25
2017-12-30T18:28:58.889Z,99176.46
2017-12-30T18:31:24.702Z,99180.78
2017-12-30T18:33:50.514Z,99181.32
2017-12-30T18:36:16.325Z,99174.50
2017-12-30T18:38:42.599Z,99169.77
2017-12-30T18:41:08.461Z,99167.31
2017-12-30T18:43:34.266Z,99149.59
2017-12-30T18:46:00.073Z,99149.70
2017-12-30T18:48:26.206Z,99153.82
2017-12-30T18:50:52.149Z,99150.28
2017-12-30T18:53:18.070Z,99151.39
2017-12-30T18:55:43.878Z,99162.09
2017-12-30T18:58:09.837Z,99165.39
2017-12-30T19:00:35.650Z,99175.88
2017-12-30T19:03:01.727Z,99166.02
2017-12-30T19:05:27.530Z,99163.13
2017-12-30T19:07:53.342Z,99173.72
2017-12-30T19:10:19.177Z,99165.18
2017-12-30T19:12:45.122Z,99162.52
2017-12-30T19:15:10.930Z,99161.72
2017-12-30T19:17:36.736Z,99163.86
2017-12-30T19:20:02.543Z,99168.89
2017-12-30T19:22:28.526Z,99160.75
2017-12-30T19:24:54.336Z,99161.24
2017-12-30T19:27:20.202Z,99158.84
2017-12-30T19:29:46.005Z,99158.36
2017-12-30T19:32:11.820Z,99160.13
2017-12-30T19:34:37.621Z,99162.91
2017-12-30T19:37:03.443Z,99161.97
2017-12-30T19:39:29.265Z,99157.24
2017-12-30T19:41:55.961Z,99155.86
2017-12-30T19:44:21.772Z,99147.75
2017-12-30T19:46:47.571Z,99153.00
2017-12-30T19:49:13.381Z,99134.30
2017-12-30T19:51:39.194Z,99126.10
2017-12-30T19:54:04.994Z,99129.97
2017-12-30T19:56:30.802Z,99121.84
2017-12-30T19:58:56.811Z,99135.52
2017-12-30T20:01:22.614Z,99148.88
2017-12-30T20:03:48.428Z,99143.44
2017-12-30T20:06:15.105Z,99142.30
2017-12-30T20:08:41.006Z,99149.44
2017-12-30T20:11:08.732Z,99154.86
2017-12-30T20:13:35.691Z,99154.39
2017-12-30T20:16:01.496Z,99157.65
2017-12-30T20:18:27.681Z,99165.14
2017-12-30T20:20:53.893Z,99155.34
2017-12-30T20:23:19.698Z,99149.27
2017-12-30T20:25:45.645Z,99145.20
2017-12-30T20:28:11.469Z,99158.09
2017-12-30T20:30:37.321Z,99157.95
2017-12-30T20:33:05.680Z,99146.02
2017-12-30T20:35:31.622Z,99159.62
2017-12-30T20:37:57.418Z,99158.78
2017-12-30T20:40:23.466Z,99151.55
2017-12-30T20:42:49.574Z,99152.03
2017-12-30T20:45:15.386Z,99147.24
2017-12-30T20:47:41.303Z,99138.50
2017-12-30T20:50:07.178Z,99163.17
2017-12-30T20:52:32.989Z,99154.12
2017-12-30T20:54:58.863Z,99150.57
2017-12-30T20:57:24.671Z,99163.41
2017-12-30T20:59:50.495Z,99159.88
2017-12-30T21:02:16.309Z,99172.93
2017-12-30T21:04:42.113Z,99163.39
2017-12-30T21:07:07.918Z,99175.06
2017-12-30T21:09:33.726Z,99175.43
2017-12-30T21:11:59.580Z,99161.42
2017-12-30T21:14:25.387Z,99169.94
2017-12-30T21:16:51.186Z,99150.97
2017-12-30T21:19:17.182Z,99164.94
2017-12-30T21:21:43.167Z,99150.59
2017-12-30T21:24:09.021Z,99143.66
2017-12-30T21:26:34.826Z,99140.72
2017-12-30T21:29:00.636Z,99140.19
2017-12-30T21:31:26.470Z,99152.51
2017-12-30T21:33:52.314Z,99148.48
2017-12-30T21:36:18.117Z,99158.61
2017-12-30T21:38:43.970Z,99158.32
2017-12-30T21:41:10.014Z,99161.64
2017-12-30T21:43:36.142Z,99165.63
2017-12-30T21:46:02.146Z,99178.05
2017-12-30T21:48:27.954Z,99179.36
2017-12-30T21:50:53.761Z,99175.97
2017-12-30T21:53:19.570Z,99153.48
2017-12-30T21:55:45.493Z,99155.59
2017-12-30T21:58:11.337Z,99159.50
2017-12-30T22:00:37.141Z,99156.53
2017-12-30T22:03:06.517Z,99162.31
2017-12-30T22:05:32.446Z,99164.11
2017-12-30T22:07:58.265Z,99175.59
2017-12-30T22:10:24.077Z,99185.58
2017-12-30T22:12:49.878Z,99182.80
2017-12-30T22:15:15.870Z,99187.23
2017-12-30T22:17:41.687Z,99197.51
2017-12-30T22:20:08.427Z,99209.95
2017-12-30T22:22:34.247Z,99194.23
2017-12-30T22:25:00.124Z,99195.57
2017-12-30T22:27:26.797Z,99202.03
2017-12-30T22:29:53.669Z,99203.32
2017-12-30T22:32:19.482Z,99209.13
2017-12-30T22:34:45.289Z,99216.28
2017-12-30T22:37:11.107Z,99219.92
2017-12-30T22:39:37.083Z,99223.05
2017-12-30T22:42:02.890Z,99235.56
2017-12-30T22:44:28.703Z,99246.28
2017-12-30T22:46:55.423Z,99250.02
2017-12-30T22:49:21.229Z,99255.41
2017-12-30T22:51:47.275Z,99269.82
2017-12-30T22:54:13.089Z,99265.02
2017-12-30T22:56:38.909Z,99279.64
2017-12-30T22:59:04.723Z,99281.82
2017-12-30T23:01:30.605Z,99287.01
2017-12-30T23:03:56.413Z,99298.74
2017-12-30T23:06:22.213Z,99298.92
2017-12-30T23:08:49.017Z,99311.61
2017-12-30T23:11:14.824Z,99320.80
2017-12-30T23:13:40.890Z,99324.72
2017-12-30T23:16:06.766Z,99325.02
2017-12-30T23:18:32.574Z,99327.82
2017-12-30T23:20:58.373Z,99340.25
2017-12-30T23:23:25.761Z,99337.05
2017-12-30T23:25:51.562Z,99334.80
2017-12-30T23:28:17.362Z,99334.00
2017-12-30T23:30:43.165Z,99350.87
2017-12-30T23:33:08.970Z,99352.81
2017-12-30T23:35:34.816Z,99357.86
2017-12-30T23:38:00.610Z,99367.20
2017-12-30T23:40:26.621Z,99357.27
2017-12-30T23:42:53.249Z,99377.63
2017-12-30T23:45:20.057Z,99392.81
2017-12-30T23:47:45.854Z,99390.06
2017-12-30T23:50:11.670Z,99397.95
2017-12-30T23:52:37.506Z,99390.03
2017-12-30T23:55:03.357Z,99398.42
2017-12-30T23:57:29.297Z,99394.95
2017-12-30T23:59:55.101Z,99395.90
